sensor_id;sensor_type;location;lat;lon;timestamp;P1;durP1;ratioP1;P2;durP2;ratioP2
2362;SDS011;64265;51.664;7.626;2023-05-10T00:00:37;1.87;;;1.77;;
2362;SDS011;64265;51.664;7.626;2023-05-10T00:03:05;2.00;;;1.90;;
2362;SDS011;64265;51.664;7.626;2023-05-10T00:05:31;2.07;;;1.90;;
2362;SDS011;64265;51.664;7.626;2023-05-10T00:07:58;1.77;;;1.60;;
2362;SDS011;64265;51.664;7.626;2023-05-10T00:10:25;2.10;;;1.90;;
2362;SDS011;64265;51.664;7.626;2023-05-10T00:12:52;1.53;;;1.43;;
2362;SDS011;64265;51.664;7.626;2023-05-10T00:15:18;2.53;;;2.20;;
2362;SDS011;64265;51.664;7.626;2023-05-10T00:17:46;1.97;;;1.77;;
2362;SDS011;64265;51.664;7.626;2023-05-10T00:20:13;2.20;;;1.60;;
2362;SDS011;64265;51.664;7.626;2023-05-10T00:22:40;2.33;;;1.93;;
2362;SDS011;64265;51.664;7.626;2023-05-10T00:25:07;1.60;;;1.50;;
2362;SDS011;64265;51.664;7.626;2023-05-10T00:27:35;2.00;;;1.90;;
2362;SDS011;64265;51.664;7.626;2023-05-10T00:30:01;2.80;;;2.60;;
2362;SDS011;64265;51.664;7.626;2023-05-10T00:32:28;1.63;;;1.53;;
2362;SDS011;64265;51.664;7.626;2023-05-10T00:34:56;1.50;;;1.40;;
2362;SDS011;64265;51.664;7.626;2023-05-10T00:37:23;1.70;;;1.57;;
2362;SDS011;64265;51.664;7.626;2023-05-10T00:39:50;2.50;;;2.30;;
2362;SDS011;64265;51.664;7.626;2023-05-10T00:42:16;1.80;;;1.47;;
2362;SDS011;64265;51.664;7.626;2023-05-10T00:44:43;1.83;;;1.73;;
2362;SDS011;64265;51.664;7.626;2023-05-10T00:47:11;2.50;;;1.90;;
2362;SDS011;64265;51.664;7.626;2023-05-10T00:49:38;2.00;;;1.90;;
2362;SDS011;64265;51.664;7.626;2023-05-10T00:52:06;1.93;;;1.80;;
2362;SDS011;64265;51.664;7.626;2023-05-10T00:54:33;1.90;;;1.70;;
2362;SDS011;64265;51.664;7.626;2023-05-10T00:57:00;2.20;;;2.00;;
2362;SDS011;64265;51.664;7.626;2023-05-10T00:59:28;1.92;;;1.83;;
2362;SDS011;64265;51.664;7.626;2023-05-10T01:01:55;5.10;;;2.20;;
2362;SDS011;64265;51.664;7.626;2023-05-10T01:04:22;2.07;;;1.87;;
2362;SDS011;64265;51.664;7.626;2023-05-10T01:06:53;2.57;;;2.17;;
2362;SDS011;64265;51.664;7.626;2023-05-10T01:09:21;1.80;;;1.60;;
2362;SDS011;64265;51.664;7.626;2023-05-10T01:11:50;1.80;;;1.70;;
2362;SDS011;64265;51.664;7.626;2023-05-10T01:14:17;2.30;;;1.87;;
2362;SDS011;64265;51.664;7.626;2023-05-10T01:16:45;2.43;;;2.00;;
2362;SDS011;64265;51.664;7.626;2023-05-10T01:19:17;1.70;;;1.60;;
2362;SDS011;64265;51.664;7.626;2023-05-10T01:21:49;2.50;;;2.30;;
2362;SDS011;64265;51.664;7.626;2023-05-10T01:24:38;1.93;;;1.63;;
2362;SDS011;64265;51.664;7.626;2023-05-10T01:27:20;2.37;;;2.17;;
2362;SDS011;64265;51.664;7.626;2023-05-10T01:30:16;1.80;;;1.70;;
2362;SDS011;64265;51.664;7.626;2023-05-10T01:33:02;2.20;;;2.00;;
2362;SDS011;64265;51.664;7.626;2023-05-10T01:35:37;1.67;;;1.57;;
2362;SDS011;64265;51.664;7.626;2023-05-10T01:38:11;2.20;;;2.00;;
2362;SDS011;64265;51.664;7.626;2023-05-10T01:40:46;1.70;;;1.60;;
2362;SDS011;64265;51.664;7.626;2023-05-10T01:43:21;1.63;;;1.53;;
2362;SDS011;64265;51.664;7.626;2023-05-10T01:45:54;2.20;;;2.03;;
2362;SDS011;64265;51.664;7.626;2023-05-10T01:48:30;1.70;;;1.60;;
2362;SDS011;64265;51.664;7.626;2023-05-10T01:50:58;1.77;;;1.67;;
2362;SDS011;64265;51.664;7.626;2023-05-10T01:53:25;1.77;;;1.67;;
2362;SDS011;64265;51.664;7.626;2023-05-10T01:55:53;1.93;;;1.73;;
2362;SDS011;64265;51.664;7.626;2023-05-10T01:58:23;1.70;;;1.60;;
2362;SDS011;64265;51.664;7.626;2023-05-10T02:00:53;2.13;;;2.03;;
2362;SDS011;64265;51.664;7.626;2023-05-10T02:03:21;1.60;;;1.50;;
2362;SDS011;64265;51.664;7.626;2023-05-10T02:05:51;1.45;;;1.35;;
2362;SDS011;64265;51.664;7.626;2023-05-10T02:08:19;2.30;;;1.93;;
2362;SDS011;64265;51.664;7.626;2023-05-10T02:10:48;1.90;;;1.80;;
2362;SDS011;64265;51.664;7.626;2023-05-10T02:13:16;1.70;;;1.60;;
2362;SDS011;64265;51.664;7.626;2023-05-10T02:15:45;2.03;;;1.80;;
2362;SDS011;64265;51.664;7.626;2023-05-10T02:18:14;2.03;;;1.90;;
2362;SDS011;64265;51.664;7.626;2023-05-10T02:20:43;1.90;;;1.80;;
2362;SDS011;64265;51.664;7.626;2023-05-10T02:23:12;2.00;;;1.73;;
2362;SDS011;64265;51.664;7.626;2023-05-10T02:25:40;2.10;;;1.93;;
2362;SDS011;64265;51.664;7.626;2023-05-10T02:28:09;1.63;;;1.50;;
2362;SDS011;64265;51.664;7.626;2023-05-10T02:30:38;1.93;;;1.70;;
2362;SDS011;64265;51.664;7.626;2023-05-10T02:33:05;1.70;;;1.60;;
2362;SDS011;64265;51.664;7.626;2023-05-10T02:35:33;2.00;;;1.90;;
2362;SDS011;64265;51.664;7.626;2023-05-10T02:38:01;2.20;;;1.53;;
2362;SDS011;64265;51.664;7.626;2023-05-10T02:40:29;1.70;;;1.60;;
2362;SDS011;64265;51.664;7.626;2023-05-10T02:42:57;2.17;;;2.00;;
2362;SDS011;64265;51.664;7.626;2023-05-10T02:45:27;1.70;;;1.53;;
2362;SDS011;64265;51.664;7.626;2023-05-10T02:47:57;1.93;;;1.73;;
2362;SDS011;64265;51.664;7.626;2023-05-10T02:50:25;1.73;;;1.63;;
2362;SDS011;64265;51.664;7.626;2023-05-10T02:52:54;2.03;;;1.40;;
2362;SDS011;64265;51.664;7.626;2023-05-10T02:55:25;1.87;;;1.70;;
2362;SDS011;64265;51.664;7.626;2023-05-10T02:57:59;2.10;;;1.90;;
2362;SDS011;64265;51.664;7.626;2023-05-10T03:00:27;1.50;;;1.40;;
2362;SDS011;64265;51.664;7.626;2023-05-10T03:02:54;1.75;;;1.65;;
2362;SDS011;64265;51.664;7.626;2023-05-10T03:05:21;1.97;;;1.87;;
2362;SDS011;64265;51.664;7.626;2023-05-10T03:07:48;1.83;;;1.73;;
2362;SDS011;64265;51.664;7.626;2023-05-10T03:10:15;2.00;;;1.83;;
2362;SDS011;64265;51.664;7.626;2023-05-10T03:12:47;1.90;;;1.80;;
2362;SDS011;64265;51.664;7.626;2023-05-10T03:15:31;2.00;;;1.90;;
2362;SDS011;64265;51.664;7.626;2023-05-10T03:18:04;1.83;;;1.73;;
2362;SDS011;64265;51.664;7.626;2023-05-10T03:20:35;1.93;;;1.57;;
2362;SDS011;64265;51.664;7.626;2023-05-10T03:23:04;2.08;;;1.85;;
2362;SDS011;64265;51.664;7.626;2023-05-10T03:25:34;2.03;;;1.85;;
2362;SDS011;64265;51.664;7.626;2023-05-10T03:28:01;1.83;;;1.73;;
2362;SDS011;64265;51.664;7.626;2023-05-10T03:30:31;1.90;;;1.70;;
2362;SDS011;64265;51.664;7.626;2023-05-10T03:33:03;1.90;;;1.80;;
2362;SDS011;64265;51.664;7.626;2023-05-10T03:35:31;2.37;;;2.17;;
2362;SDS011;64265;51.664;7.626;2023-05-10T03:37:58;1.80;;;1.70;;
2362;SDS011;64265;51.664;7.626;2023-05-10T03:40:25;1.70;;;1.60;;
2362;SDS011;64265;51.664;7.626;2023-05-10T03:42:53;1.50;;;1.40;;
2362;SDS011;64265;51.664;7.626;2023-05-10T03:45:20;1.77;;;1.67;;
2362;SDS011;64265;51.664;7.626;2023-05-10T03:47:48;2.53;;;1.70;;
2362;SDS011;64265;51.664;7.626;2023-05-10T03:50:15;1.67;;;1.57;;
2362;SDS011;64265;51.664;7.626;2023-05-10T03:52:42;1.98;;;1.77;;
2362;SDS011;64265;51.664;7.626;2023-05-10T03:55:09;1.50;;;1.40;;
2362;SDS011;64265;51.664;7.626;2023-05-10T03:57:36;2.07;;;1.97;;
2362;SDS011;64265;51.664;7.626;2023-05-10T04:00:03;1.63;;;1.47;;
2362;SDS011;64265;51.664;7.626;2023-05-10T04:02:30;1.90;;;1.80;;
2362;SDS011;64265;51.664;7.626;2023-05-10T04:04:58;1.60;;;1.50;;
2362;SDS011;64265;51.664;7.626;2023-05-10T04:07:25;2.13;;;1.92;;
2362;SDS011;64265;51.664;7.626;2023-05-10T04:09:51;3.50;;;1.57;;
2362;SDS011;64265;51.664;7.626;2023-05-10T04:12:18;1.95;;;1.75;;
2362;SDS011;64265;51.664;7.626;2023-05-10T04:14:45;1.75;;;1.65;;
2362;SDS011;64265;51.664;7.626;2023-05-10T04:17:12;1.90;;;1.75;;
2362;SDS011;64265;51.664;7.626;2023-05-10T04:19:38;2.10;;;1.90;;
2362;SDS011;64265;51.664;7.626;2023-05-10T04:22:06;1.38;;;1.20;;
2362;SDS011;64265;51.664;7.626;2023-05-10T04:24:33;1.75;;;1.65;;
2362;SDS011;64265;51.664;7.626;2023-05-10T04:27:00;1.40;;;1.30;;
2362;SDS011;64265;51.664;7.626;2023-05-10T04:29:26;1.50;;;1.40;;
2362;SDS011;64265;51.664;7.626;2023-05-10T04:31:53;1.65;;;1.55;;
2362;SDS011;64265;51.664;7.626;2023-05-10T04:34:21;1.80;;;1.70;;
2362;SDS011;64265;51.664;7.626;2023-05-10T04:36:48;2.05;;;1.85;;
2362;SDS011;64265;51.664;7.626;2023-05-10T04:39:16;1.77;;;1.67;;
2362;SDS011;64265;51.664;7.626;2023-05-10T04:41:44;2.00;;;1.90;;
2362;SDS011;64265;51.664;7.626;2023-05-10T04:44:11;2.45;;;2.25;;
2362;SDS011;64265;51.664;7.626;2023-05-10T04:46:38;1.85;;;1.65;;
2362;SDS011;64265;51.664;7.626;2023-05-10T04:49:04;1.70;;;1.55;;
2362;SDS011;64265;51.664;7.626;2023-05-10T04:51:31;2.05;;;1.67;;
2362;SDS011;64265;51.664;7.626;2023-05-10T04:53:58;1.70;;;1.60;;
2362;SDS011;64265;51.664;7.626;2023-05-10T04:56:26;2.30;;;2.10;;
2362;SDS011;64265;51.664;7.626;2023-05-10T04:58:53;1.42;;;1.33;;
2362;SDS011;64265;51.664;7.626;2023-05-10T05:01:20;1.52;;;1.40;;
2362;SDS011;64265;51.664;7.626;2023-05-10T05:03:48;2.10;;;1.70;;
2362;SDS011;64265;51.664;7.626;2023-05-10T05:06:15;1.60;;;1.50;;
2362;SDS011;64265;51.664;7.626;2023-05-10T05:08:43;2.00;;;1.90;;
2362;SDS011;64265;51.664;7.626;2023-05-10T05:11:10;1.70;;;1.60;;
2362;SDS011;64265;51.664;7.626;2023-05-10T05:13:38;1.45;;;1.35;;
2362;SDS011;64265;51.664;7.626;2023-05-10T05:16:05;1.75;;;1.65;;
2362;SDS011;64265;51.664;7.626;2023-05-10T05:18:32;2.15;;;1.92;;
2362;SDS011;64265;51.664;7.626;2023-05-10T05:20:59;1.63;;;1.23;;
2362;SDS011;64265;51.664;7.626;2023-05-10T05:23:26;1.63;;;1.52;;
2362;SDS011;64265;51.664;7.626;2023-05-10T05:25:52;1.60;;;1.50;;
2362;SDS011;64265;51.664;7.626;2023-05-10T05:28:20;1.92;;;1.80;;
2362;SDS011;64265;51.664;7.626;2023-05-10T05:30:48;1.52;;;1.42;;
2362;SDS011;64265;51.664;7.626;2023-05-10T05:33:14;1.50;;;1.40;;
2362;SDS011;64265;51.664;7.626;2023-05-10T05:35:41;1.77;;;1.67;;
2362;SDS011;64265;51.664;7.626;2023-05-10T05:38:12;1.50;;;1.40;;
2362;SDS011;64265;51.664;7.626;2023-05-10T05:40:39;2.10;;;1.87;;
2362;SDS011;64265;51.664;7.626;2023-05-10T05:43:05;1.40;;;1.30;;
2362;SDS011;64265;51.664;7.626;2023-05-10T05:45:32;1.70;;;1.60;;
2362;SDS011;64265;51.664;7.626;2023-05-10T05:48:00;1.50;;;1.40;;
2362;SDS011;64265;51.664;7.626;2023-05-10T05:50:27;1.70;;;1.60;;
2362;SDS011;64265;51.664;7.626;2023-05-10T05:52:54;1.90;;;1.40;;
2362;SDS011;64265;51.664;7.626;2023-05-10T05:55:21;1.63;;;1.53;;
2362;SDS011;64265;51.664;7.626;2023-05-10T05:57:49;1.43;;;1.20;;
2362;SDS011;64265;51.664;7.626;2023-05-10T06:00:15;1.80;;;1.43;;
2362;SDS011;64265;51.664;7.626;2023-05-10T06:02:43;1.60;;;1.50;;
2362;SDS011;64265;51.664;7.626;2023-05-10T06:05:11;1.60;;;1.20;;
2362;SDS011;64265;51.664;7.626;2023-05-10T06:07:38;3.97;;;1.40;;
2362;SDS011;64265;51.664;7.626;2023-05-10T06:10:07;1.83;;;1.73;;
2362;SDS011;64265;51.664;7.626;2023-05-10T06:12:34;1.80;;;1.70;;
2362;SDS011;64265;51.664;7.626;2023-05-10T06:15:01;1.40;;;1.30;;
2362;SDS011;64265;51.664;7.626;2023-05-10T06:17:27;1.83;;;1.50;;
2362;SDS011;64265;51.664;7.626;2023-05-10T06:19:54;1.47;;;1.37;;
2362;SDS011;64265;51.664;7.626;2023-05-10T06:22:22;1.48;;;1.38;;
2362;SDS011;64265;51.664;7.626;2023-05-10T06:24:49;1.63;;;1.53;;
2362;SDS011;64265;51.664;7.626;2023-05-10T06:27:16;1.90;;;1.77;;
2362;SDS011;64265;51.664;7.626;2023-05-10T06:29:43;2.60;;;1.40;;
2362;SDS011;64265;51.664;7.626;2023-05-10T06:32:09;1.47;;;1.37;;
2362;SDS011;64265;51.664;7.626;2023-05-10T06:34:36;1.50;;;1.40;;
2362;SDS011;64265;51.664;7.626;2023-05-10T06:37:03;1.23;;;1.10;;
2362;SDS011;64265;51.664;7.626;2023-05-10T06:39:31;1.33;;;1.23;;
2362;SDS011;64265;51.664;7.626;2023-05-10T06:41:58;1.47;;;1.30;;
2362;SDS011;64265;51.664;7.626;2023-05-10T06:44:26;1.30;;;1.20;;
2362;SDS011;64265;51.664;7.626;2023-05-10T06:46:53;1.37;;;1.27;;
2362;SDS011;64265;51.664;7.626;2023-05-10T06:49:20;1.47;;;1.37;;
2362;SDS011;64265;51.664;7.626;2023-05-10T06:51:47;1.40;;;1.20;;
2362;SDS011;64265;51.664;7.626;2023-05-10T06:54:14;1.10;;;1.00;;
2362;SDS011;64265;51.664;7.626;2023-05-10T06:56:42;1.40;;;1.30;;
2362;SDS011;64265;51.664;7.626;2023-05-10T06:59:09;2.03;;;1.63;;
2362;SDS011;64265;51.664;7.626;2023-05-10T07:01:35;1.50;;;1.40;;
2362;SDS011;64265;51.664;7.626;2023-05-10T07:04:02;1.50;;;1.40;;
2362;SDS011;64265;51.664;7.626;2023-05-10T07:06:29;1.63;;;1.53;;
2362;SDS011;64265;51.664;7.626;2023-05-10T07:08:56;1.30;;;1.20;;
2362;SDS011;64265;51.664;7.626;2023-05-10T07:11:22;1.50;;;1.40;;
2362;SDS011;64265;51.664;7.626;2023-05-10T07:13:51;1.53;;;1.43;;
2362;SDS011;64265;51.664;7.626;2023-05-10T07:16:17;1.20;;;1.10;;
2362;SDS011;64265;51.664;7.626;2023-05-10T07:18:44;1.63;;;1.30;;
2362;SDS011;64265;51.664;7.626;2023-05-10T07:21:11;1.87;;;1.30;;
2362;SDS011;64265;51.664;7.626;2023-05-10T07:23:38;3.40;;;1.90;;
2362;SDS011;64265;51.664;7.626;2023-05-10T07:26:05;1.43;;;1.33;;
2362;SDS011;64265;51.664;7.626;2023-05-10T07:28:32;1.17;;;1.07;;
2362;SDS011;64265;51.664;7.626;2023-05-10T07:31:00;2.03;;;1.83;;
2362;SDS011;64265;51.664;7.626;2023-05-10T07:33:26;2.30;;;2.10;;
2362;SDS011;64265;51.664;7.626;2023-05-10T07:35:53;2.50;;;2.30;;
2362;SDS011;64265;51.664;7.626;2023-05-10T07:38:21;1.90;;;1.80;;
2362;SDS011;64265;51.664;7.626;2023-05-10T07:40:48;4.07;;;3.77;;
2362;SDS011;64265;51.664;7.626;2023-05-10T07:43:15;6.80;;;6.20;;
2362;SDS011;64265;51.664;7.626;2023-05-10T07:45:41;10.93;;;9.90;;
2362;SDS011;64265;51.664;7.626;2023-05-10T07:48:09;13.43;;;10.87;;
2362;SDS011;64265;51.664;7.626;2023-05-10T07:50:36;22.27;;;14.17;;
2362;SDS011;64265;51.664;7.626;2023-05-10T07:53:03;16.57;;;14.83;;
2362;SDS011;64265;51.664;7.626;2023-05-10T07:55:30;16.60;;;14.67;;
2362;SDS011;64265;51.664;7.626;2023-05-10T07:57:56;18.13;;;16.43;;
2362;SDS011;64265;51.664;7.626;2023-05-10T08:00:25;15.40;;;13.70;;
2362;SDS011;64265;51.664;7.626;2023-05-10T08:02:53;15.03;;;13.53;;
2362;SDS011;64265;51.664;7.626;2023-05-10T08:05:21;14.27;;;12.88;;
2362;SDS011;64265;51.664;7.626;2023-05-10T08:07:48;13.43;;;12.02;;
2362;SDS011;64265;51.664;7.626;2023-05-10T08:10:14;13.63;;;12.20;;
2362;SDS011;64265;51.664;7.626;2023-05-10T08:12:41;12.00;;;10.93;;
2362;SDS011;64265;51.664;7.626;2023-05-10T08:15:09;12.77;;;11.07;;
2362;SDS011;64265;51.664;7.626;2023-05-10T08:17:36;12.90;;;11.50;;
2362;SDS011;64265;51.664;7.626;2023-05-10T08:20:03;12.57;;;10.77;;
2362;SDS011;64265;51.664;7.626;2023-05-10T08:22:32;11.97;;;10.87;;
2362;SDS011;64265;51.664;7.626;2023-05-10T08:25:00;11.75;;;10.55;;
2362;SDS011;64265;51.664;7.626;2023-05-10T08:27:27;9.70;;;8.25;;
2362;SDS011;64265;51.664;7.626;2023-05-10T08:29:54;10.33;;;9.23;;
2362;SDS011;64265;51.664;7.626;2023-05-10T08:32:21;12.30;;;9.37;;
2362;SDS011;64265;51.664;7.626;2023-05-10T08:34:47;11.37;;;10.27;;
2362;SDS011;64265;51.664;7.626;2023-05-10T08:37:14;11.55;;;10.45;;
2362;SDS011;64265;51.664;7.626;2023-05-10T08:39:42;10.93;;;9.82;;
2362;SDS011;64265;51.664;7.626;2023-05-10T08:42:10;10.48;;;9.57;;
2362;SDS011;64265;51.664;7.626;2023-05-10T08:44:39;10.90;;;9.43;;
2362;SDS011;64265;51.664;7.626;2023-05-10T08:47:06;9.50;;;8.68;;
2362;SDS011;64265;51.664;7.626;2023-05-10T08:49:33;10.17;;;9.30;;
2362;SDS011;64265;51.664;7.626;2023-05-10T08:52:02;11.17;;;10.17;;
2362;SDS011;64265;51.664;7.626;2023-05-10T08:54:30;10.67;;;9.63;;
2362;SDS011;64265;51.664;7.626;2023-05-10T08:56:59;10.70;;;9.70;;
2362;SDS011;64265;51.664;7.626;2023-05-10T08:59:26;11.60;;;8.50;;
2362;SDS011;64265;51.664;7.626;2023-05-10T09:01:53;8.43;;;7.63;;
2362;SDS011;64265;51.664;7.626;2023-05-10T09:04:23;9.87;;;9.00;;
2362;SDS011;64265;51.664;7.626;2023-05-10T09:06:50;13.00;;;10.20;;
2362;SDS011;64265;51.664;7.626;2023-05-10T09:09:17;11.23;;;10.23;;
2362;SDS011;64265;51.664;7.626;2023-05-10T09:11:45;10.73;;;9.70;;
2362;SDS011;64265;51.664;7.626;2023-05-10T09:14:14;10.43;;;9.50;;
2362;SDS011;64265;51.664;7.626;2023-05-10T09:16:42;9.77;;;8.80;;
2362;SDS011;64265;51.664;7.626;2023-05-10T09:19:09;10.40;;;9.37;;
2362;SDS011;64265;51.664;7.626;2023-05-10T09:21:36;11.23;;;9.83;;
2362;SDS011;64265;51.664;7.626;2023-05-10T09:24:03;9.70;;;8.90;;
2362;SDS011;64265;51.664;7.626;2023-05-10T09:26:31;11.03;;;10.03;;
2362;SDS011;64265;51.664;7.626;2023-05-10T09:28:58;11.13;;;10.17;;
2362;SDS011;64265;51.664;7.626;2023-05-10T09:34:11;10.93;;;9.80;;
2362;SDS011;64265;51.664;7.626;2023-05-10T09:36:50;9.93;;;8.47;;
2362;SDS011;64265;51.664;7.626;2023-05-10T09:39:21;12.70;;;10.93;;
2362;SDS011;64265;51.664;7.626;2023-05-10T09:41:56;9.37;;;8.50;;
2362;SDS011;64265;51.664;7.626;2023-05-10T09:44:25;9.77;;;8.87;;
2362;SDS011;64265;51.664;7.626;2023-05-10T09:46:53;17.40;;;8.60;;
2362;SDS011;64265;51.664;7.626;2023-05-10T09:49:23;10.27;;;8.43;;
2362;SDS011;64265;51.664;7.626;2023-05-10T09:51:59;10.53;;;9.00;;
2362;SDS011;64265;51.664;7.626;2023-05-10T09:54:27;10.10;;;7.80;;
2362;SDS011;64265;51.664;7.626;2023-05-10T09:56:54;8.20;;;7.57;;
2362;SDS011;64265;51.664;7.626;2023-05-10T09:59:21;7.40;;;6.60;;
2362;SDS011;64265;51.664;7.626;2023-05-10T10:01:51;8.50;;;7.80;;
2362;SDS011;64265;51.664;7.626;2023-05-10T10:04:22;8.97;;;6.83;;
2362;SDS011;64265;51.664;7.626;2023-05-10T10:06:58;16.43;;;6.87;;
2362;SDS011;64265;51.664;7.626;2023-05-10T10:09:26;8.27;;;7.47;;
2362;SDS011;64265;51.664;7.626;2023-05-10T10:11:54;6.60;;;6.00;;
2362;SDS011;64265;51.664;7.626;2023-05-10T10:14:21;7.80;;;7.10;;
2362;SDS011;64265;51.664;7.626;2023-05-10T10:16:49;6.97;;;6.37;;
2362;SDS011;64265;51.664;7.626;2023-05-10T10:19:15;8.27;;;7.57;;
2362;SDS011;64265;51.664;7.626;2023-05-10T10:21:44;8.67;;;7.40;;
2362;SDS011;64265;51.664;7.626;2023-05-10T10:24:11;7.77;;;7.17;;
2362;SDS011;64265;51.664;7.626;2023-05-10T10:26:37;8.10;;;7.40;;
2362;SDS011;64265;51.664;7.626;2023-05-10T10:29:10;7.10;;;6.30;;
2362;SDS011;64265;51.664;7.626;2023-05-10T10:31:45;7.17;;;6.57;;
2362;SDS011;64265;51.664;7.626;2023-05-10T10:34:18;11.30;;;9.30;;
2362;SDS011;64265;51.664;7.626;2023-05-10T10:36:53;6.67;;;6.17;;
2362;SDS011;64265;51.664;7.626;2023-05-10T10:39:24;8.17;;;7.37;;
2362;SDS011;64265;51.664;7.626;2023-05-10T10:41:52;7.27;;;6.57;;
2362;SDS011;64265;51.664;7.626;2023-05-10T10:44:26;6.80;;;6.30;;
2362;SDS011;64265;51.664;7.626;2023-05-10T10:47:02;7.67;;;7.00;;
2362;SDS011;64265;51.664;7.626;2023-05-10T10:50:04;6.50;;;5.77;;
2362;SDS011;64265;51.664;7.626;2023-05-10T10:52:34;6.97;;;6.47;;
2362;SDS011;64265;51.664;7.626;2023-05-10T10:55:02;6.33;;;5.80;;
2362;SDS011;64265;51.664;7.626;2023-05-10T10:57:32;7.33;;;6.73;;
2362;SDS011;64265;51.664;7.626;2023-05-10T11:03:00;7.50;;;6.90;;
2362;SDS011;64265;51.664;7.626;2023-05-10T11:08:13;7.20;;;6.60;;
2362;SDS011;64265;51.664;7.626;2023-05-10T11:13:40;8.50;;;7.70;;
2362;SDS011;64265;51.664;7.626;2023-05-10T11:16:10;8.67;;;7.87;;
2362;SDS011;64265;51.664;7.626;2023-05-10T11:18:51;8.43;;;6.57;;
2362;SDS011;64265;51.664;7.626;2023-05-10T11:21:20;6.90;;;6.40;;
2362;SDS011;64265;51.664;7.626;2023-05-10T11:23:52;7.53;;;6.83;;
2362;SDS011;64265;51.664;7.626;2023-05-10T11:26:21;8.03;;;7.10;;
2362;SDS011;64265;51.664;7.626;2023-05-10T11:28:51;7.43;;;6.83;;
2362;SDS011;64265;51.664;7.626;2023-05-10T11:31:20;6.43;;;5.83;;
2362;SDS011;64265;51.664;7.626;2023-05-10T11:33:48;7.57;;;6.97;;
2362;SDS011;64265;51.664;7.626;2023-05-10T11:36:16;6.83;;;6.13;;
2362;SDS011;64265;51.664;7.626;2023-05-10T11:38:44;9.30;;;6.67;;
2362;SDS011;64265;51.664;7.626;2023-05-10T11:41:13;6.80;;;6.10;;
2362;SDS011;64265;51.664;7.626;2023-05-10T11:43:41;7.10;;;6.50;;
2362;SDS011;64265;51.664;7.626;2023-05-10T11:46:09;6.90;;;6.30;;
2362;SDS011;64265;51.664;7.626;2023-05-10T11:48:38;8.47;;;6.53;;
2362;SDS011;64265;51.664;7.626;2023-05-10T11:51:05;7.40;;;6.83;;
2362;SDS011;64265;51.664;7.626;2023-05-10T11:53:33;6.93;;;6.33;;
2362;SDS011;64265;51.664;7.626;2023-05-10T11:56:03;10.93;;;6.50;;
2362;SDS011;64265;51.664;7.626;2023-05-10T11:58:31;6.33;;;5.83;;
2362;SDS011;64265;51.664;7.626;2023-05-10T12:00:58;6.40;;;5.90;;
2362;SDS011;64265;51.664;7.626;2023-05-10T12:03:26;8.00;;;7.30;;
2362;SDS011;64265;51.664;7.626;2023-05-10T12:05:53;6.87;;;6.27;;
2362;SDS011;64265;51.664;7.626;2023-05-10T12:08:21;6.93;;;6.33;;
2362;SDS011;64265;51.664;7.626;2023-05-10T12:10:49;6.60;;;6.00;;
2362;SDS011;64265;51.664;7.626;2023-05-10T12:13:16;8.03;;;7.33;;
2362;SDS011;64265;51.664;7.626;2023-05-10T12:15:44;7.20;;;6.60;;
2362;SDS011;64265;51.664;7.626;2023-05-10T12:18:11;6.80;;;6.23;;
2362;SDS011;64265;51.664;7.626;2023-05-10T12:20:39;7.07;;;6.37;;
2362;SDS011;64265;51.664;7.626;2023-05-10T12:23:08;6.93;;;6.33;;
2362;SDS011;64265;51.664;7.626;2023-05-10T12:25:36;6.33;;;5.80;;
2362;SDS011;64265;51.664;7.626;2023-05-10T12:28:04;7.50;;;6.80;;
2362;SDS011;64265;51.664;7.626;2023-05-10T12:30:32;6.93;;;6.33;;
2362;SDS011;64265;51.664;7.626;2023-05-10T12:33:02;8.10;;;6.53;;
2362;SDS011;64265;51.664;7.626;2023-05-10T12:35:32;6.43;;;5.90;;
2362;SDS011;64265;51.664;7.626;2023-05-10T12:38:22;6.87;;;6.27;;
2362;SDS011;64265;51.664;7.626;2023-05-10T12:40:51;5.70;;;5.20;;
2362;SDS011;64265;51.664;7.626;2023-05-10T12:43:17;9.13;;;8.27;;
2362;SDS011;64265;51.664;7.626;2023-05-10T12:45:44;9.10;;;7.90;;
2362;SDS011;64265;51.664;7.626;2023-05-10T12:48:14;7.87;;;7.10;;
2362;SDS011;64265;51.664;7.626;2023-05-10T12:50:42;6.87;;;6.27;;
2362;SDS011;64265;51.664;7.626;2023-05-10T12:53:09;7.57;;;6.93;;
2362;SDS011;64265;51.664;7.626;2023-05-10T12:55:36;6.87;;;6.27;;
2362;SDS011;64265;51.664;7.626;2023-05-10T12:58:02;6.07;;;5.57;;
2362;SDS011;64265;51.664;7.626;2023-05-10T13:00:29;8.33;;;6.00;;
2362;SDS011;64265;51.664;7.626;2023-05-10T13:02:56;5.87;;;5.37;;
2362;SDS011;64265;51.664;7.626;2023-05-10T13:05:24;7.90;;;7.10;;
2362;SDS011;64265;51.664;7.626;2023-05-10T13:07:51;8.03;;;7.33;;
2362;SDS011;64265;51.664;7.626;2023-05-10T13:10:17;8.40;;;7.63;;
2362;SDS011;64265;51.664;7.626;2023-05-10T13:12:44;7.97;;;7.07;;
2362;SDS011;64265;51.664;7.626;2023-05-10T13:15:11;9.27;;;8.13;;
2362;SDS011;64265;51.664;7.626;2023-05-10T13:17:37;7.90;;;7.20;;
2362;SDS011;64265;51.664;7.626;2023-05-10T13:20:06;7.87;;;7.20;;
2362;SDS011;64265;51.664;7.626;2023-05-10T13:22:34;8.47;;;7.67;;
2362;SDS011;64265;51.664;7.626;2023-05-10T13:25:01;7.83;;;7.17;;
2362;SDS011;64265;51.664;7.626;2023-05-10T13:27:28;8.83;;;7.93;;
2362;SDS011;64265;51.664;7.626;2023-05-10T13:29:55;7.50;;;6.90;;
2362;SDS011;64265;51.664;7.626;2023-05-10T13:32:21;8.33;;;7.43;;
2362;SDS011;64265;51.664;7.626;2023-05-10T13:34:48;6.80;;;6.30;;
2362;SDS011;64265;51.664;7.626;2023-05-10T13:37:15;7.70;;;6.90;;
2362;SDS011;64265;51.664;7.626;2023-05-10T13:39:43;7.60;;;6.90;;
2362;SDS011;64265;51.664;7.626;2023-05-10T13:42:10;7.63;;;6.97;;
2362;SDS011;64265;51.664;7.626;2023-05-10T13:44:37;7.87;;;7.17;;
2362;SDS011;64265;51.664;7.626;2023-05-10T13:47:03;7.00;;;6.40;;
2362;SDS011;64265;51.664;7.626;2023-05-10T13:49:31;7.53;;;6.83;;
2362;SDS011;64265;51.664;7.626;2023-05-10T13:51:58;7.40;;;6.70;;
2362;SDS011;64265;51.664;7.626;2023-05-10T13:54:30;7.67;;;7.00;;
2362;SDS011;64265;51.664;7.626;2023-05-10T13:56:58;7.10;;;6.50;;
2362;SDS011;64265;51.664;7.626;2023-05-10T13:59:25;7.53;;;6.93;;
2362;SDS011;64265;51.664;7.626;2023-05-10T14:01:52;7.57;;;6.90;;
2362;SDS011;64265;51.664;7.626;2023-05-10T14:04:19;7.30;;;6.73;;
2362;SDS011;64265;51.664;7.626;2023-05-10T14:06:45;6.90;;;6.30;;
2362;SDS011;64265;51.664;7.626;2023-05-10T14:09:12;7.53;;;6.93;;
2362;SDS011;64265;51.664;7.626;2023-05-10T14:11:39;9.27;;;6.87;;
2362;SDS011;64265;51.664;7.626;2023-05-10T14:14:09;8.50;;;7.70;;
2362;SDS011;64265;51.664;7.626;2023-05-10T14:16:36;7.30;;;6.60;;
2362;SDS011;64265;51.664;7.626;2023-05-10T14:19:03;6.73;;;6.23;;
2362;SDS011;64265;51.664;7.626;2023-05-10T14:21:29;8.57;;;7.77;;
2362;SDS011;64265;51.664;7.626;2023-05-10T14:23:56;7.00;;;6.50;;
2362;SDS011;64265;51.664;7.626;2023-05-10T14:26:23;6.90;;;6.30;;
2362;SDS011;64265;51.664;7.626;2023-05-10T14:28:51;6.93;;;6.43;;
2362;SDS011;64265;51.664;7.626;2023-05-10T14:31:19;7.60;;;6.90;;
2362;SDS011;64265;51.664;7.626;2023-05-10T14:33:46;6.20;;;5.60;;
2362;SDS011;64265;51.664;7.626;2023-05-10T14:36:13;6.37;;;5.77;;
2362;SDS011;64265;51.664;7.626;2023-05-10T14:38:39;7.50;;;6.90;;
2362;SDS011;64265;51.664;7.626;2023-05-10T14:41:06;6.90;;;6.30;;
2362;SDS011;64265;51.664;7.626;2023-05-10T14:43:33;6.93;;;6.23;;
2362;SDS011;64265;51.664;7.626;2023-05-10T14:46:05;7.43;;;6.77;;
2362;SDS011;64265;51.664;7.626;2023-05-10T14:48:33;5.53;;;5.10;;
2362;SDS011;64265;51.664;7.626;2023-05-10T14:51:00;6.33;;;5.70;;
2362;SDS011;64265;51.664;7.626;2023-05-10T14:53:26;6.13;;;5.63;;
2362;SDS011;64265;51.664;7.626;2023-05-10T14:55:53;6.40;;;5.80;;
2362;SDS011;64265;51.664;7.626;2023-05-10T14:58:20;6.47;;;5.97;;
2362;SDS011;64265;51.664;7.626;2023-05-10T15:00:46;6.27;;;5.77;;
2362;SDS011;64265;51.664;7.626;2023-05-10T15:03:13;6.20;;;5.67;;
2362;SDS011;64265;51.664;7.626;2023-05-10T15:05:41;6.10;;;5.60;;
2362;SDS011;64265;51.664;7.626;2023-05-10T15:08:08;5.93;;;5.43;;
2362;SDS011;64265;51.664;7.626;2023-05-10T15:10:35;6.20;;;5.70;;
2362;SDS011;64265;51.664;7.626;2023-05-10T15:13:03;6.00;;;5.50;;
2362;SDS011;64265;51.664;7.626;2023-05-10T15:15:30;6.00;;;5.50;;